Edward G. Pitka Sr Airport
PAGA : now visible

Airfield :











YOU CAN JOIN US ON...

 
LOGIN :

Register | Disclaimer

   EN    FR    IT 

 









Legend :    VFR   Marginal VFR   IFR   Intensive IFR   Very Intensive IFR
Visi :
Ceiling :
>= 8 km
>= 3000ft
5 to 8 km
1000 to 3000 ft
1500m to 5 km
500 to 1000 ft
800 to 1500m
200 to 500 ft
< 800m
< 200 ft
Symbols :   Thunderstorms  Fog  Heavy snow  Heavy precipitations  Wind > 20 kt






- Airport Elevation : 153 ft
- IATA code : GAL


PAGA - Edward G. Pitka Sr

CURRENT METAR :
  • 010821Z AUTO 17006KT 10SM SCT026 OVC065 14/13 A2987 RMK AO2

EXPIRED METARs :
  • 010756Z AUTO 15005KT 10SM BKN026 OVC070 14/13 A2986 RMK AO2 SLP114 T01440128
  • 010727Z AUTO 15005KT 10SM SCT024 OVC060 15/13 A2986 RMK AO2
  • 010656Z AUTO 12004KT 10SM BKN024 BKN034 OVC050 15/13 A2985 RMK AO2 SLP109 T01500133
  • 010556Z AUTO 19005KT 10SM OVC025 15/13 A2984 RMK AO2 RAE32 SLP106 P0000 60012 T01500128 10167 20144 53014

TAF PAGA
Valid from the 01 at 06:00 until the 02 at 06:00 UTC


010549Z 0106/0206 21008KT 6SM -RA BR BKN025 OVC040
FM011000 15008KT 4SM -RA BR BKN009 OVC025
FM020400 15008KT P6SM VCSH BKN015 OVC035
PAZA FIR / North America



MET'MAP, your aeronautical weather chart ! - Copyright ORBIFLY December 2007 - Disclaimer

ORBIFLY MET'MAP TEAM :

Programming & Development : Alexandra Zaïnal
Concept & original design : Baudouin d'Aumeries
Assistance for programming : Marc-Olivier Méhu
Technical & hardware support : Manuel Goepfert

Contact : metmap@orbifly.com




SOURCES & CREDITS :

   NOAA       Earth
Advisory